createdAt,value
2017-08-17T00:01:31.842Z,19.43
2017-08-17T00:03:59.404Z,18.50
2017-08-17T00:06:27.444Z,18.00
2017-08-17T00:08:55.025Z,17.40
2017-08-17T00:11:22.572Z,19.93
2017-08-17T00:13:50.171Z,17.90
2017-08-17T00:16:17.739Z,21.30
2017-08-17T00:18:46.429Z,19.47
2017-08-17T00:21:14.763Z,18.33
2017-08-17T00:23:42.333Z,21.10
2017-08-17T00:26:10.213Z,22.37
2017-08-17T00:28:38.538Z,22.07
2017-08-17T00:31:06.473Z,18.77
2017-08-17T00:33:34.048Z,16.20
2017-08-17T00:36:01.610Z,17.70
2017-08-17T00:38:29.236Z,18.53
2017-08-17T00:40:56.875Z,18.93
2017-08-17T00:43:24.771Z,16.87
2017-08-17T00:45:52.328Z,17.80
2017-08-17T00:48:19.925Z,15.50
2017-08-17T00:50:47.507Z,18.60
2017-08-17T00:53:15.109Z,20.17
2017-08-17T00:55:43.185Z,17.20
2017-08-17T00:58:11.512Z,21.93
2017-08-17T01:00:39.074Z,20.00
2017-08-17T01:03:06.685Z,25.27
2017-08-17T01:05:34.257Z,22.00
2017-08-17T01:08:02.897Z,18.90
2017-08-17T01:10:30.455Z,18.03
2017-08-17T01:12:58.009Z,19.77
2017-08-17T01:15:25.610Z,19.70
2017-08-17T01:17:53.173Z,23.87
2017-08-17T01:20:21.844Z,22.47
2017-08-17T01:22:49.432Z,19.40
2017-08-17T01:25:16.999Z,17.23
2017-08-17T01:27:44.749Z,20.10
2017-08-17T01:30:12.315Z,19.20
2017-08-17T01:32:40.358Z,19.50
2017-08-17T01:35:07.917Z,18.80
2017-08-17T01:37:35.479Z,25.53
2017-08-17T01:40:03.855Z,18.77
2017-08-17T01:42:31.417Z,16.50
2017-08-17T01:44:59.281Z,21.70
2017-08-17T01:47:27.673Z,21.90
2017-08-17T01:49:55.223Z,18.60
2017-08-17T01:52:23.244Z,19.30
2017-08-17T01:54:51.003Z,19.60
2017-08-17T01:57:19.020Z,20.53
2017-08-17T01:59:46.724Z,14.30
2017-08-17T02:02:14.288Z,15.30
2017-08-17T02:04:41.887Z,21.93
2017-08-17T02:07:09.443Z,16.47
2017-08-17T02:09:37.384Z,16.17
2017-08-17T02:12:04.948Z,19.67
2017-08-17T02:14:32.505Z,17.13
2017-08-17T02:17:00.107Z,15.60
2017-08-17T02:19:27.659Z,15.90
2017-08-17T02:21:55.614Z,23.10
2017-08-17T02:24:23.182Z,19.63
2017-08-17T02:26:50.746Z,27.90
2017-08-17T02:29:18.341Z,26.73
2017-08-17T02:31:45.906Z,14.50
2017-08-17T02:34:13.921Z,17.00
2017-08-17T02:36:41.498Z,23.23
2017-08-17T02:39:09.272Z,16.73
2017-08-17T02:41:36.879Z,16.27
2017-08-17T02:44:04.439Z,18.20
2017-08-17T02:46:32.448Z,23.90
2017-08-17T02:49:01.001Z,26.70
2017-08-17T02:51:28.602Z,21.80
2017-08-17T02:53:56.212Z,18.50
2017-08-17T02:56:23.781Z,18.20
2017-08-17T02:58:51.666Z,17.57
2017-08-17T03:01:19.244Z,20.60
2017-08-17T03:03:46.816Z,19.40
2017-08-17T03:06:14.461Z,15.10
2017-08-17T03:08:42.079Z,19.60
2017-08-17T03:11:10.097Z,20.63
2017-08-17T03:13:37.664Z,25.57
2017-08-17T03:16:05.230Z,23.07
2017-08-17T03:18:33.614Z,21.13
2017-08-17T03:21:01.179Z,16.83
2017-08-17T03:23:29.847Z,15.80
2017-08-17T03:25:57.423Z,20.40
2017-08-17T03:28:24.984Z,21.73
2017-08-17T03:30:53.411Z,19.60
2017-08-17T03:33:20.997Z,19.20
2017-08-17T03:35:48.968Z,23.20
2017-08-17T03:38:16.541Z,26.07
2017-08-17T03:40:44.104Z,19.10
2017-08-17T03:43:12.479Z,19.53
2017-08-17T03:45:40.031Z,19.30
2017-08-17T03:48:07.918Z,17.97
2017-08-17T03:50:36.356Z,19.70
2017-08-17T03:53:04.883Z,21.33
2017-08-17T03:55:32.509Z,21.53
2017-08-17T03:58:00.419Z,20.10
2017-08-17T04:00:28.461Z,20.27
2017-08-17T04:02:56.021Z,19.57
2017-08-17T04:05:23.582Z,20.93
2017-08-17T04:07:51.206Z,20.20
2017-08-17T04:10:18.766Z,23.13
2017-08-17T04:12:46.801Z,21.17
2017-08-17T04:15:14.382Z,20.10
2017-08-17T04:17:41.932Z,18.53
2017-08-17T04:20:09.758Z,21.00
2017-08-17T04:22:37.315Z,19.67
2017-08-17T04:25:05.272Z,24.13
2017-08-17T04:27:32.850Z,18.40
2017-08-17T04:30:00.414Z,19.23
2017-08-17T04:32:28.787Z,25.13
2017-08-17T04:34:56.365Z,18.80
2017-08-17T04:37:25.039Z,21.03
2017-08-17T04:39:53.546Z,18.17
2017-08-17T04:42:21.121Z,18.70
2017-08-17T04:44:48.739Z,22.43
2017-08-17T04:47:16.299Z,23.90
2017-08-17T04:49:44.986Z,16.37
2017-08-17T04:52:13.312Z,19.97
2017-08-17T04:54:40.860Z,21.50
2017-08-17T04:57:26.080Z,17.27
2017-08-17T04:59:53.656Z,24.63
2017-08-17T05:02:22.031Z,24.43
2017-08-17T05:04:49.609Z,16.90
2017-08-17T05:07:17.634Z,19.10
2017-08-17T05:09:45.200Z,18.37
2017-08-17T05:12:12.826Z,22.27
2017-08-17T05:14:40.436Z,16.37
2017-08-17T05:17:08.047Z,18.70
2017-08-17T05:19:35.958Z,29.17
2017-08-17T05:22:03.987Z,24.33
2017-08-17T05:24:31.549Z,25.77
2017-08-17T05:26:59.140Z,24.47
2017-08-17T05:29:26.709Z,22.10
2017-08-17T05:31:54.883Z,20.87
2017-08-17T05:34:22.460Z,19.50
2017-08-17T05:36:50.014Z,20.17
2017-08-17T05:39:18.437Z,20.83
2017-08-17T05:41:46.044Z,16.60
2017-08-17T05:44:14.029Z,19.77
2017-08-17T05:46:43.524Z,28.03
2017-08-17T05:49:11.082Z,15.80
2017-08-17T05:51:38.744Z,16.93
2017-08-17T05:54:06.354Z,16.83
2017-08-17T05:56:34.354Z,19.93
2017-08-17T05:59:01.912Z,15.87
2017-08-17T06:01:31.072Z,14.93
2017-08-17T06:03:58.652Z,15.10
2017-08-17T06:06:26.201Z,25.80
2017-08-17T06:08:53.793Z,17.60
2017-08-17T06:11:21.347Z,18.73
2017-08-17T06:13:49.196Z,28.40
2017-08-17T06:16:16.751Z,17.10
2017-08-17T06:18:44.323Z,13.57
2017-08-17T06:21:12.084Z,18.13
2017-08-17T06:23:39.841Z,17.30
2017-08-17T06:26:07.736Z,14.70
2017-08-17T06:28:35.281Z,20.77
2017-08-17T06:31:02.853Z,13.93
2017-08-17T06:33:30.454Z,20.47
2017-08-17T06:35:58.238Z,22.43
2017-08-17T06:38:26.257Z,19.30
2017-08-17T06:40:54.289Z,28.80
2017-08-17T06:43:21.867Z,16.20
2017-08-17T06:45:49.458Z,15.20
2017-08-17T06:48:17.054Z,25.37
2017-08-17T06:50:44.968Z,14.87
2017-08-17T06:53:12.535Z,18.80
2017-08-17T06:55:40.122Z,15.03
2017-08-17T06:58:08.511Z,14.37
2017-08-17T07:00:36.100Z,15.30
2017-08-17T07:03:04.000Z,18.83
2017-08-17T07:05:31.586Z,15.73
2017-08-17T07:07:59.923Z,13.27
2017-08-17T07:10:27.530Z,16.60
2017-08-17T07:12:55.103Z,16.97
2017-08-17T07:15:23.030Z,18.00
2017-08-17T07:17:50.587Z,24.43
2017-08-17T07:20:18.152Z,13.60
2017-08-17T07:22:45.754Z,24.80
2017-08-17T07:25:13.320Z,22.17
2017-08-17T07:27:41.184Z,14.50
2017-08-17T07:30:08.759Z,13.57
2017-08-17T07:32:36.397Z,14.10
2017-08-17T07:35:04.092Z,19.93
2017-08-17T07:37:31.670Z,15.50
2017-08-17T07:39:59.647Z,18.50
2017-08-17T07:42:27.233Z,21.47
2017-08-17T07:44:54.787Z,18.63
2017-08-17T07:47:23.205Z,23.50
2017-08-17T07:49:50.781Z,14.50
2017-08-17T07:52:18.777Z,16.80
2017-08-17T07:54:46.335Z,22.67
2017-08-17T07:57:13.915Z,14.27
2017-08-17T07:59:42.314Z,12.47
2017-08-17T08:02:09.887Z,12.83
2017-08-17T08:04:37.899Z,18.17
2017-08-17T08:07:05.457Z,11.80
2017-08-17T08:09:33.017Z,12.87
2017-08-17T08:12:00.644Z,10.80
2017-08-17T08:14:28.243Z,13.40
2017-08-17T08:16:56.223Z,11.27
2017-08-17T08:19:23.763Z,12.80
2017-08-17T08:21:51.319Z,10.83
2017-08-17T08:24:18.920Z,10.90
2017-08-17T08:26:46.583Z,15.73
2017-08-17T08:29:14.450Z,12.70
2017-08-17T08:31:42.767Z,15.07
2017-08-17T08:34:10.323Z,10.87
2017-08-17T08:36:37.925Z,8.67
2017-08-17T08:39:06.276Z,10.20
2017-08-17T08:41:34.282Z,10.70
2017-08-17T08:44:02.623Z,12.50
2017-08-17T08:46:30.570Z,8.33
2017-08-17T08:48:58.167Z,11.43
2017-08-17T08:51:25.737Z,10.83
2017-08-17T08:53:53.787Z,12.03
2017-08-17T08:56:21.365Z,13.03
2017-08-17T08:58:48.928Z,10.50
2017-08-17T09:01:16.490Z,10.30
2017-08-17T09:03:44.047Z,9.27
2017-08-17T09:06:12.911Z,8.27
2017-08-17T09:08:40.639Z,9.80
2017-08-17T09:11:08.206Z,12.90
2017-08-17T09:13:35.803Z,9.23
2017-08-17T09:16:03.386Z,10.10
2017-08-17T09:18:32.048Z,8.50
2017-08-17T09:20:59.687Z,7.40
2017-08-17T09:23:27.261Z,17.33
2017-08-17T09:25:54.864Z,13.43
2017-08-17T09:28:23.179Z,7.27
2017-08-17T09:30:51.166Z,13.23
2017-08-17T09:33:18.710Z,7.80
2017-08-17T09:35:46.253Z,6.73
2017-08-17T09:38:13.942Z,7.90
2017-08-17T09:40:41.516Z,8.93
2017-08-17T09:43:09.660Z,13.50
2017-08-17T09:45:37.230Z,10.03
2017-08-17T09:48:04.819Z,8.07
2017-08-17T09:50:32.432Z,9.60
2017-08-17T09:53:00.025Z,7.93
2017-08-17T09:55:27.977Z,8.50
2017-08-17T09:57:55.549Z,13.70
2017-08-17T10:00:23.370Z,8.33
2017-08-17T10:02:50.990Z,7.90
2017-08-17T10:05:18.551Z,11.70
2017-08-17T10:07:46.530Z,12.47
2017-08-17T10:10:14.857Z,8.17
2017-08-17T10:12:42.539Z,16.73
2017-08-17T10:15:10.141Z,10.50
2017-08-17T10:17:39.585Z,9.90
2017-08-17T10:20:07.660Z,9.30
2017-08-17T10:22:35.224Z,9.57
2017-08-17T10:25:02.779Z,8.73
2017-08-17T10:27:30.355Z,10.10
2017-08-17T10:29:57.913Z,9.00
2017-08-17T10:32:25.797Z,7.63
2017-08-17T10:34:53.352Z,7.10
2017-08-17T10:37:20.917Z,7.33
2017-08-17T10:39:48.497Z,10.80
2017-08-17T10:42:16.069Z,8.50
2017-08-17T10:44:43.933Z,7.60
2017-08-17T10:47:12.339Z,7.27
2017-08-17T10:49:39.914Z,6.03
2017-08-17T10:52:07.565Z,5.10
2017-08-17T10:54:35.156Z,7.10
2017-08-17T10:57:03.047Z,7.20
2017-08-17T10:59:31.387Z,16.90
2017-08-17T11:01:58.949Z,8.93
2017-08-17T11:04:26.532Z,8.97
2017-08-17T11:06:54.173Z,10.20
2017-08-17T11:09:22.046Z,10.00
2017-08-17T11:11:49.626Z,9.20
2017-08-17T11:14:17.184Z,14.43
2017-08-17T11:16:44.769Z,9.53
2017-08-17T11:19:13.088Z,6.80
2017-08-17T11:21:41.010Z,5.83
2017-08-17T11:24:08.545Z,7.90
2017-08-17T11:26:36.165Z,11.47
2017-08-17T11:29:03.790Z,5.80
2017-08-17T11:31:31.330Z,6.40
2017-08-17T11:33:59.982Z,9.40
2017-08-17T11:36:27.575Z,6.00
2017-08-17T11:38:55.134Z,8.30
2017-08-17T11:41:22.731Z,8.93
2017-08-17T11:43:50.289Z,6.43
2017-08-17T11:46:18.338Z,6.40
2017-08-17T11:48:46.224Z,6.57
2017-08-17T11:51:13.283Z,5.60
2017-08-17T11:53:40.895Z,11.23
2017-08-17T11:56:08.465Z,7.80
2017-08-17T11:58:36.429Z,6.40
2017-08-17T12:01:04.001Z,22.53
2017-08-17T12:03:31.574Z,6.50
2017-08-17T12:05:59.194Z,8.90
2017-08-17T12:08:26.832Z,5.93
2017-08-17T12:10:54.722Z,7.27
2017-08-17T12:13:22.286Z,15.63
2017-08-17T12:15:49.848Z,5.70
2017-08-17T12:18:17.445Z,7.77
2017-08-17T12:20:45.013Z,4.80
2017-08-17T12:23:13.030Z,5.73
2017-08-17T12:25:40.597Z,6.47
2017-08-17T12:28:08.173Z,4.57
2017-08-17T12:30:35.767Z,7.00
2017-08-17T12:33:03.439Z,6.10
2017-08-17T12:35:31.338Z,11.90
2017-08-17T12:37:58.958Z,6.03
2017-08-17T12:40:26.520Z,5.80
2017-08-17T12:42:54.129Z,6.90
2017-08-17T12:45:21.679Z,5.63
2017-08-17T12:47:49.659Z,6.17
2017-08-17T12:50:17.204Z,4.90
2017-08-17T12:52:44.760Z,6.17
2017-08-17T12:55:12.368Z,5.53
2017-08-17T12:57:39.944Z,6.27
2017-08-17T13:00:07.824Z,5.13
2017-08-17T13:02:35.386Z,5.83
2017-08-17T13:05:02.961Z,10.57
2017-08-17T13:07:30.563Z,5.57
2017-08-17T13:09:58.926Z,4.97
2017-08-17T13:12:26.871Z,5.63
2017-08-17T13:14:54.527Z,8.73
2017-08-17T13:17:22.328Z,6.13
2017-08-17T13:19:49.971Z,8.60
2017-08-17T13:22:17.628Z,7.57
2017-08-17T13:24:45.633Z,8.87
2017-08-17T13:27:13.967Z,7.47
2017-08-17T13:29:42.644Z,7.87
2017-08-17T13:32:10.279Z,7.23
2017-08-17T13:34:37.859Z,9.07
2017-08-17T13:37:05.776Z,7.90
2017-08-17T13:39:33.324Z,6.10
2017-08-17T13:42:00.941Z,11.73
2017-08-17T13:44:28.530Z,8.83
2017-08-17T13:46:56.102Z,6.67
2017-08-17T13:49:24.080Z,7.93
2017-08-17T13:51:51.776Z,8.83
2017-08-17T13:54:19.344Z,7.73
2017-08-17T13:56:46.942Z,13.33
2017-08-17T13:59:14.508Z,11.00
2017-08-17T14:01:42.384Z,7.10
2017-08-17T14:04:10.117Z,7.33
2017-08-17T14:06:37.692Z,9.07
2017-08-17T14:09:05.279Z,6.00
2017-08-17T14:11:32.832Z,10.93
2017-08-17T14:14:00.904Z,8.93
2017-08-17T14:16:28.475Z,7.80
2017-08-17T14:18:56.036Z,8.50
2017-08-17T14:21:24.404Z,10.90
2017-08-17T14:23:51.982Z,10.00
2017-08-17T14:26:20.637Z,7.13
2017-08-17T14:28:48.200Z,9.33
2017-08-17T14:31:15.752Z,9.50
2017-08-17T14:33:43.362Z,6.93
2017-08-17T14:36:10.943Z,11.47
2017-08-17T14:38:38.812Z,7.33
2017-08-17T14:41:06.379Z,7.63
2017-08-17T14:43:33.941Z,7.87
2017-08-17T14:46:01.576Z,7.80
2017-08-17T14:48:29.146Z,8.93
2017-08-17T14:50:57.060Z,14.83
2017-08-17T14:53:24.633Z,7.67
2017-08-17T14:55:52.227Z,7.40
2017-08-17T14:58:19.992Z,10.17
2017-08-17T15:00:47.563Z,10.40
2017-08-17T15:03:15.439Z,11.40
2017-08-17T15:05:43.011Z,7.10
2017-08-17T15:08:10.567Z,9.53
2017-08-17T15:10:38.214Z,6.67
2017-08-17T15:13:05.805Z,8.30
2017-08-17T15:15:33.677Z,10.60
2017-08-17T15:18:01.266Z,15.10
2017-08-17T15:20:28.824Z,9.30
2017-08-17T15:22:57.232Z,8.30
2017-08-17T15:25:24.773Z,7.63
2017-08-17T15:27:52.692Z,7.73
2017-08-17T15:30:20.274Z,8.70
2017-08-17T15:32:48.606Z,10.97
2017-08-17T15:35:16.217Z,10.33
2017-08-17T15:37:44.576Z,9.60
2017-08-17T15:40:12.718Z,9.70
2017-08-17T15:42:40.307Z,8.43
2017-08-17T15:45:07.880Z,9.80
2017-08-17T15:47:35.481Z,9.73
2017-08-17T15:50:03.039Z,8.33
2017-08-17T15:52:31.058Z,13.33
2017-08-17T15:54:58.625Z,11.00
2017-08-17T15:57:26.197Z,9.53
2017-08-17T15:59:54.569Z,9.33
2017-08-17T16:02:22.141Z,12.20
2017-08-17T16:04:50.806Z,9.57
2017-08-17T16:07:18.373Z,20.40
2017-08-17T16:09:45.945Z,11.17
2017-08-17T16:12:14.321Z,11.43
2017-08-17T16:14:41.910Z,8.20
2017-08-17T16:17:09.755Z,9.70
2017-08-17T16:19:38.086Z,25.10
2017-08-17T16:22:05.657Z,13.10
2017-08-17T16:24:33.260Z,8.50
2017-08-17T16:27:00.822Z,8.10
2017-08-17T16:29:28.793Z,16.57
2017-08-17T16:31:56.380Z,10.83
2017-08-17T16:34:23.957Z,13.93
2017-08-17T16:36:51.538Z,11.37
2017-08-17T16:39:19.096Z,9.83
2017-08-17T16:41:46.998Z,10.03
2017-08-17T16:44:14.663Z,11.30
2017-08-17T16:46:42.237Z,9.43
2017-08-17T16:49:09.845Z,12.83
2017-08-17T16:51:37.423Z,13.13
2017-08-17T16:54:06.103Z,14.97
2017-08-17T16:56:34.461Z,10.63
2017-08-17T16:59:02.027Z,13.97
2017-08-17T17:01:29.868Z,26.77
2017-08-17T17:03:57.436Z,14.77
2017-08-17T17:06:25.076Z,10.63
2017-08-17T17:08:52.638Z,10.87
2017-08-17T17:11:20.532Z,17.77
2017-08-17T17:13:48.103Z,12.57
2017-08-17T17:16:15.722Z,8.13
2017-08-17T17:18:43.349Z,10.87
2017-08-17T17:21:11.701Z,14.80
2017-08-17T17:23:39.586Z,10.97
2017-08-17T17:26:07.150Z,16.63
2017-08-17T17:28:36.052Z,12.67
2017-08-17T17:31:03.620Z,14.30
2017-08-17T17:33:31.202Z,12.77
2017-08-17T17:35:58.805Z,12.90
2017-08-17T17:38:26.395Z,10.67
2017-08-17T17:40:54.324Z,11.30
2017-08-17T17:43:21.904Z,14.60
2017-08-17T17:45:49.472Z,13.13
2017-08-17T17:48:17.831Z,16.67
2017-08-17T17:50:45.374Z,13.93
2017-08-17T17:53:12.976Z,23.37
2017-08-17T17:55:40.554Z,13.63
2017-08-17T17:58:08.178Z,12.70
2017-08-17T18:00:36.526Z,11.37
2017-08-17T18:03:04.277Z,19.40
2017-08-17T18:05:31.913Z,12.23
2017-08-17T18:07:59.842Z,14.03
2017-08-17T18:10:27.413Z,11.40
2017-08-17T18:12:54.984Z,13.73
2017-08-17T18:15:23.384Z,11.17
2017-08-17T18:17:50.956Z,16.70
2017-08-17T18:20:18.968Z,11.63
2017-08-17T18:22:46.517Z,23.77
2017-08-17T18:25:14.099Z,12.60
2017-08-17T18:27:42.634Z,13.80
2017-08-17T18:30:10.349Z,13.33
2017-08-17T18:32:37.948Z,15.00
2017-08-17T18:35:05.765Z,12.20
2017-08-17T18:37:33.384Z,14.43
2017-08-17T18:40:00.998Z,15.77
2017-08-17T18:42:28.575Z,16.73
2017-08-17T18:44:56.608Z,15.30
2017-08-17T18:47:24.159Z,21.23
2017-08-17T18:49:51.729Z,13.83
2017-08-17T18:52:19.515Z,15.30
2017-08-17T18:54:47.092Z,14.87
2017-08-17T18:57:14.991Z,14.47
2017-08-17T18:59:42.561Z,19.47
2017-08-17T19:02:10.113Z,17.97
2017-08-17T19:04:37.858Z,16.93
2017-08-17T19:07:05.472Z,15.50
2017-08-17T19:09:33.108Z,14.33
2017-08-17T19:12:00.674Z,14.10
2017-08-17T19:14:28.766Z,32.70
2017-08-17T19:16:57.103Z,14.67
2017-08-17T19:19:24.676Z,14.70
2017-08-17T19:21:52.283Z,19.80
2017-08-17T19:24:19.848Z,13.03
2017-08-17T19:26:47.437Z,16.47
2017-08-17T19:29:15.008Z,17.17
2017-08-17T19:31:43.129Z,15.83
2017-08-17T19:34:10.703Z,15.13
2017-08-17T19:36:38.274Z,18.67
2017-08-17T19:39:05.878Z,12.73
2017-08-17T19:41:33.439Z,13.50
2017-08-17T19:44:01.525Z,11.13
2017-08-17T19:46:29.093Z,17.00
2017-08-17T19:48:56.667Z,14.77
2017-08-17T19:51:25.063Z,14.80
2017-08-17T19:53:52.611Z,15.43
2017-08-17T19:56:20.653Z,12.50
2017-08-17T19:58:48.272Z,13.80
2017-08-17T20:01:15.853Z,12.23
2017-08-17T20:03:44.904Z,14.87
2017-08-17T20:06:12.506Z,12.47
2017-08-17T20:08:40.397Z,16.40
2017-08-17T20:11:08.131Z,15.77
2017-08-17T20:13:35.721Z,16.60
2017-08-17T20:16:03.344Z,19.03
2017-08-17T20:18:30.936Z,11.93
2017-08-17T20:20:59.004Z,15.60
2017-08-17T20:23:26.596Z,12.13
2017-08-17T20:25:54.176Z,11.40
2017-08-17T20:28:22.037Z,14.90
2017-08-17T20:30:49.659Z,15.23
2017-08-17T20:33:17.301Z,18.60
2017-08-17T20:35:44.907Z,11.60
2017-08-17T20:38:12.949Z,12.33
2017-08-17T20:40:40.524Z,17.10
2017-08-17T20:43:08.253Z,27.77
2017-08-17T20:45:35.858Z,18.10
2017-08-17T20:48:03.438Z,12.80
2017-08-17T20:50:31.476Z,22.80
2017-08-17T20:52:59.808Z,21.60
2017-08-17T20:55:27.384Z,22.13
2017-08-17T20:57:55.007Z,14.60
2017-08-17T21:00:22.579Z,23.00
2017-08-17T21:02:50.597Z,18.70
2017-08-17T21:05:18.173Z,18.87
2017-08-17T21:07:45.756Z,16.40
2017-08-17T21:10:13.565Z,16.40
2017-08-17T21:12:41.144Z,15.80
2017-08-17T21:15:09.095Z,22.87
2017-08-17T21:17:36.660Z,23.73
2017-08-17T21:20:04.274Z,27.37
2017-08-17T21:22:31.930Z,16.33
2017-08-17T21:24:59.520Z,13.73
2017-08-17T21:27:27.426Z,19.73
2017-08-17T21:29:54.997Z,14.40
2017-08-17T21:32:22.551Z,16.80
2017-08-17T21:34:50.960Z,13.73
2017-08-17T21:37:18.532Z,12.93
2017-08-17T21:39:46.534Z,17.90
2017-08-17T21:42:14.097Z,22.93
2017-08-17T21:44:41.681Z,19.13
2017-08-17T21:47:10.078Z,16.10
2017-08-17T21:49:37.631Z,18.30
2017-08-17T21:52:05.989Z,17.50
2017-08-17T21:54:33.703Z,19.53
2017-08-17T21:57:01.277Z,22.47
2017-08-17T21:59:29.159Z,12.13
2017-08-17T22:01:56.861Z,15.40
2017-08-17T22:04:24.440Z,21.30
2017-08-17T22:06:52.087Z,17.27
2017-08-17T22:09:19.662Z,21.93
2017-08-17T22:11:47.512Z,19.90
2017-08-17T22:14:15.076Z,45.90
2017-08-17T22:16:42.632Z,14.80
2017-08-17T22:19:10.547Z,14.20
2017-08-17T22:21:38.103Z,19.70
2017-08-17T22:24:05.671Z,15.70
2017-08-17T22:26:33.280Z,20.23
2017-08-17T22:29:00.840Z,18.23
2017-08-17T22:31:28.871Z,17.93
2017-08-17T22:33:56.439Z,17.13
2017-08-17T22:36:24.008Z,15.53
2017-08-17T22:38:52.419Z,20.33
2017-08-17T22:41:19.975Z,15.03
2017-08-17T22:43:48.016Z,15.20
2017-08-17T22:46:16.361Z,14.30
2017-08-17T22:48:43.920Z,13.83
2017-08-17T22:51:11.529Z,11.80
2017-08-17T22:53:39.092Z,16.00
2017-08-17T22:56:07.140Z,16.00
2017-08-17T22:58:34.701Z,26.47
2017-08-17T23:01:02.289Z,11.50
2017-08-17T23:03:29.915Z,14.43
2017-08-17T23:05:57.486Z,13.17
2017-08-17T23:08:25.669Z,17.93
2017-08-17T23:10:54.008Z,24.43
2017-08-17T23:13:21.559Z,16.63
2017-08-17T23:15:49.178Z,14.03
2017-08-17T23:18:17.185Z,26.13
2017-08-17T23:20:45.179Z,17.93
2017-08-17T23:23:12.751Z,15.27
2017-08-17T23:25:40.341Z,18.67
2017-08-17T23:28:07.972Z,11.43
2017-08-17T23:30:35.532Z,11.37
2017-08-17T23:33:03.147Z,12.07
2017-08-17T23:35:30.729Z,14.53
2017-08-17T23:37:58.638Z,17.90
2017-08-17T23:40:27.001Z,12.03
2017-08-17T23:42:54.589Z,17.50
2017-08-17T23:45:22.222Z,12.43
2017-08-17T23:47:49.828Z,13.93
2017-08-17T23:50:17.792Z,13.10
2017-08-17T23:52:45.351Z,13.80
2017-08-17T23:55:12.939Z,13.57
2017-08-17T23:57:40.653Z,12.27
